createdAt,value
2023-05-09T00:00:15.029Z,95409.00
2023-05-09T00:01:15.016Z,95409.00
2023-05-09T00:02:15.108Z,95401.00
2023-05-09T00:03:15.178Z,95401.00
2023-05-09T00:04:15.098Z,95401.00
2023-05-09T00:05:15.551Z,95399.00
2023-05-09T00:06:15.036Z,95399.00
2023-05-09T00:07:15.086Z,95399.00
2023-05-09T00:08:15.056Z,95399.00
2023-05-09T00:09:15.097Z,95397.00
2023-05-09T00:10:15.109Z,95397.00
2023-05-09T00:11:15.049Z,95397.00
2023-05-09T00:12:15.058Z,95395.00
2023-05-09T00:13:15.072Z,95394.00
2023-05-09T00:14:15.085Z,95392.00
2023-05-09T00:15:15.338Z,95384.00
2023-05-09T00:16:15.108Z,95388.00
2023-05-09T00:17:15.143Z,95388.00
2023-05-09T00:18:15.101Z,95384.00
2023-05-09T00:19:15.192Z,95384.00
2023-05-09T00:20:15.077Z,95382.00
2023-05-09T00:21:15.070Z,95382.00
2023-05-09T00:22:15.132Z,95382.00
2023-05-09T00:23:15.084Z,95382.00
2023-05-09T00:24:15.055Z,95384.00
2023-05-09T00:25:15.318Z,95384.00
2023-05-09T00:26:15.053Z,95384.00
2023-05-09T00:27:15.119Z,95386.00
2023-05-09T00:28:15.121Z,95386.00
2023-05-09T00:29:15.070Z,95382.00
2023-05-09T00:30:15.105Z,95382.00
2023-05-09T00:31:15.091Z,95384.00
2023-05-09T00:32:15.128Z,95382.00
2023-05-09T00:33:15.123Z,95378.00
2023-05-09T00:34:15.067Z,95378.00
2023-05-09T00:35:15.380Z,95380.00
2023-05-09T00:36:15.080Z,95380.00
2023-05-09T00:37:15.082Z,95380.00
2023-05-09T00:38:15.068Z,95376.00
2023-05-09T00:39:15.093Z,95378.00
2023-05-09T00:40:15.055Z,95378.00
2023-05-09T00:41:15.117Z,95376.00
2023-05-09T00:42:15.103Z,95376.00
2023-05-09T00:43:15.049Z,95372.00
2023-05-09T00:44:15.083Z,95374.00
2023-05-09T00:45:15.257Z,95372.00
2023-05-09T00:46:15.153Z,95372.00
2023-05-09T00:47:15.066Z,95366.00
2023-05-09T00:48:15.060Z,95372.00
2023-05-09T00:49:15.070Z,95366.00
2023-05-09T00:50:15.071Z,95364.00
2023-05-09T00:51:15.150Z,95362.00
2023-05-09T00:52:15.138Z,95362.00
2023-05-09T00:53:15.107Z,95360.00
2023-05-09T00:54:15.099Z,95360.00
2023-05-09T00:55:15.328Z,95356.00
2023-05-09T00:56:15.070Z,95358.00
2023-05-09T00:57:15.074Z,95356.00
2023-05-09T00:58:15.077Z,95358.00
2023-05-09T00:59:16.966Z,95352.00
2023-05-09T01:00:15.114Z,95354.00
2023-05-09T01:01:15.122Z,95356.00
2023-05-09T01:02:15.186Z,95352.00
2023-05-09T01:03:15.159Z,95354.00
2023-05-09T01:04:15.077Z,95354.00
2023-05-09T01:05:15.400Z,95350.00
2023-05-09T01:06:15.103Z,95350.00
2023-05-09T01:07:15.167Z,95348.00
2023-05-09T01:08:15.091Z,95348.00
2023-05-09T01:09:15.111Z,95348.00
2023-05-09T01:10:15.113Z,95345.00
2023-05-09T01:11:15.132Z,95345.00
2023-05-09T01:12:15.127Z,95343.00
2023-05-09T01:13:15.219Z,95345.00
2023-05-09T01:14:15.112Z,95343.00
2023-05-09T01:15:15.312Z,95341.00
2023-05-09T01:16:15.162Z,95343.00
2023-05-09T01:17:15.155Z,95345.00
2023-05-09T01:18:15.144Z,95343.00
2023-05-09T01:19:15.127Z,95343.00
2023-05-09T01:20:15.103Z,95339.00
2023-05-09T01:21:15.226Z,95341.00
2023-05-09T01:22:15.151Z,95337.00
2023-05-09T01:23:15.243Z,95339.00
2023-05-09T01:24:15.100Z,95335.00
2023-05-09T01:25:15.436Z,95335.00
2023-05-09T01:26:15.126Z,95335.00
2023-05-09T01:27:15.131Z,95333.00
2023-05-09T01:28:15.113Z,95335.00
2023-05-09T01:29:15.154Z,95335.00
2023-05-09T01:30:15.185Z,95333.00
2023-05-09T01:31:15.121Z,95335.00
2023-05-09T01:32:15.140Z,95337.00
2023-05-09T01:33:15.167Z,95337.00
2023-05-09T01:34:15.140Z,95339.00
2023-05-09T01:35:15.398Z,95339.00
2023-05-09T01:36:15.108Z,95341.00
2023-05-09T01:37:15.099Z,95339.00
2023-05-09T01:38:15.102Z,95339.00
2023-05-09T01:39:15.197Z,95337.00
2023-05-09T01:40:15.084Z,95337.00
2023-05-09T01:41:15.119Z,95335.00
2023-05-09T01:42:15.102Z,95335.00
2023-05-09T01:43:15.138Z,95337.00
2023-05-09T01:44:15.219Z,95337.00
2023-05-09T01:45:15.482Z,95335.00
2023-05-09T01:46:15.173Z,95337.00
2023-05-09T01:47:15.111Z,95337.00
2023-05-09T01:48:15.156Z,95335.00
2023-05-09T01:49:15.132Z,95337.00
2023-05-09T01:50:15.126Z,95335.00
2023-05-09T01:51:15.145Z,95333.00
2023-05-09T01:52:15.184Z,95335.00
2023-05-09T01:53:15.154Z,95331.00
2023-05-09T01:54:15.128Z,95333.00
2023-05-09T01:55:15.400Z,95335.00
2023-05-09T01:56:15.154Z,95331.00
2023-05-09T01:57:15.173Z,95333.00
2023-05-09T01:58:15.195Z,95335.00
2023-05-09T01:59:15.168Z,95333.00
2023-05-09T02:00:15.171Z,95333.00
2023-05-09T02:01:15.266Z,95333.00
2023-05-09T02:02:15.697Z,95325.00
2023-05-09T02:03:15.202Z,95329.00
2023-05-09T02:04:15.162Z,95325.00
2023-05-09T02:05:15.350Z,95325.00
2023-05-09T02:06:15.157Z,95323.00
2023-05-09T02:07:15.177Z,95323.00
2023-05-09T02:08:15.205Z,95323.00
2023-05-09T02:09:15.189Z,95321.00
2023-05-09T02:10:15.214Z,95325.00
2023-05-09T02:11:15.328Z,95323.00
2023-05-09T02:12:15.216Z,95323.00
2023-05-09T02:13:15.264Z,95321.00
2023-05-09T02:14:15.241Z,95325.00
2023-05-09T02:15:15.528Z,95321.00
2023-05-09T02:16:15.347Z,95321.00
2023-05-09T02:17:15.673Z,95319.00
2023-05-09T02:18:15.226Z,95319.00
2023-05-09T02:19:15.225Z,95319.00
2023-05-09T02:20:15.248Z,95313.00
2023-05-09T02:21:15.319Z,95313.00
2023-05-09T02:22:15.270Z,95315.00
2023-05-09T02:23:15.289Z,95315.00
2023-05-09T02:24:15.268Z,95315.00
2023-05-09T02:25:15.625Z,95319.00
2023-05-09T02:26:15.281Z,95315.00
2023-05-09T02:27:15.371Z,95313.00
2023-05-09T02:28:15.291Z,95313.00
2023-05-09T02:29:15.304Z,95317.00
2023-05-09T02:30:15.380Z,95313.00
2023-05-09T02:31:15.384Z,95311.00
2023-05-09T02:32:15.827Z,95309.00
2023-05-09T02:33:15.320Z,95307.00
2023-05-09T02:34:15.332Z,95307.00
2023-05-09T02:35:15.550Z,95307.00
2023-05-09T02:36:15.345Z,95305.00
2023-05-09T02:37:15.662Z,95305.00
2023-05-09T02:38:15.384Z,95305.00
2023-05-09T02:39:15.365Z,95301.00
2023-05-09T02:40:15.408Z,95305.00
2023-05-09T02:41:15.379Z,95305.00
2023-05-09T02:42:15.399Z,95307.00
2023-05-09T02:43:15.446Z,95307.00
2023-05-09T02:44:15.375Z,95305.00
2023-05-09T02:45:15.547Z,95303.00
2023-05-09T02:46:15.429Z,95303.00
2023-05-09T02:47:15.395Z,95303.00
2023-05-09T02:48:15.386Z,95305.00
2023-05-09T02:49:26.670Z,95305.00
2023-05-09T02:50:16.384Z,95301.00
2023-05-09T02:51:15.416Z,95299.00
2023-05-09T02:52:15.427Z,95299.00
2023-05-09T02:53:15.363Z,95297.00
2023-05-09T02:54:15.330Z,95299.00
2023-05-09T02:55:15.614Z,95299.00
2023-05-09T02:56:15.346Z,95297.00
2023-05-09T02:57:15.680Z,95299.00
2023-05-09T02:58:15.374Z,95297.00
2023-05-09T02:59:15.419Z,95299.00
2023-05-09T03:00:15.308Z,95299.00
2023-05-09T03:01:15.350Z,95297.00
2023-05-09T03:02:15.690Z,95297.00
2023-05-09T03:03:15.418Z,95297.00
2023-05-09T03:04:15.301Z,95297.00
2023-05-09T03:05:15.439Z,95295.00
2023-05-09T03:06:15.262Z,95295.00
2023-05-09T03:07:15.280Z,95293.00
2023-05-09T03:08:15.278Z,95295.00
2023-05-09T03:09:15.258Z,95293.00
2023-05-09T03:10:15.247Z,95292.00
2023-05-09T03:11:15.218Z,95295.00
2023-05-09T03:12:15.251Z,95295.00
2023-05-09T03:13:15.264Z,95292.00
2023-05-09T03:14:15.214Z,95292.00
2023-05-09T03:15:15.512Z,95292.00
2023-05-09T03:16:15.258Z,95292.00
2023-05-09T03:17:15.228Z,95288.00
2023-05-09T03:18:15.190Z,95290.00
2023-05-09T03:19:15.196Z,95290.00
2023-05-09T03:20:15.210Z,95288.00
2023-05-09T03:21:15.216Z,95288.00
2023-05-09T03:22:15.256Z,95290.00
2023-05-09T03:23:15.276Z,95290.00
2023-05-09T03:24:15.293Z,95288.00
2023-05-09T03:25:15.559Z,95290.00
2023-05-09T03:26:15.313Z,95290.00
2023-05-09T03:27:15.681Z,95290.00
2023-05-09T03:28:15.365Z,95290.00
2023-05-09T03:29:15.337Z,95292.00
2023-05-09T03:30:15.369Z,95286.00
2023-05-09T03:31:15.374Z,95288.00
2023-05-09T03:32:15.403Z,95288.00
2023-05-09T03:33:15.399Z,95284.00
2023-05-09T03:34:15.506Z,95290.00
2023-05-09T03:35:15.583Z,95286.00
2023-05-09T03:36:15.487Z,95284.00
2023-05-09T03:37:15.480Z,95286.00
2023-05-09T03:38:15.498Z,95286.00
2023-05-09T03:39:15.494Z,95286.00
2023-05-09T03:40:15.539Z,95286.00
2023-05-09T03:41:15.545Z,95288.00
2023-05-09T03:42:15.534Z,95286.00
2023-05-09T03:43:15.582Z,95288.00
2023-05-09T03:44:15.552Z,95286.00
2023-05-09T03:45:15.722Z,95286.00
2023-05-09T03:46:15.598Z,95286.00
2023-05-09T03:47:15.826Z,95284.00
2023-05-09T03:48:15.603Z,95284.00
2023-05-09T03:49:15.631Z,95284.00
2023-05-09T03:50:15.622Z,95278.00
2023-05-09T03:51:15.647Z,95282.00
2023-05-09T03:52:15.665Z,95282.00
2023-05-09T03:53:15.693Z,95282.00
2023-05-09T03:54:15.703Z,95280.00
2023-05-09T03:55:15.947Z,95284.00
2023-05-09T03:56:15.734Z,95286.00
2023-05-09T03:57:16.190Z,95282.00
2023-05-09T03:58:15.728Z,95282.00
2023-05-09T03:59:15.742Z,95282.00
2023-05-09T04:00:15.750Z,95284.00
2023-05-09T04:01:15.746Z,95282.00
2023-05-09T04:02:15.783Z,95284.00
2023-05-09T04:03:16.060Z,95282.00
2023-05-09T04:04:15.733Z,95282.00
2023-05-09T04:05:16.107Z,95282.00
2023-05-09T04:06:15.799Z,95280.00
2023-05-09T04:07:16.204Z,95284.00
2023-05-09T04:08:15.757Z,95284.00
2023-05-09T04:09:15.757Z,95284.00
2023-05-09T04:10:15.794Z,95284.00
2023-05-09T04:11:15.822Z,95284.00
2023-05-09T04:12:15.835Z,95286.00
2023-05-09T04:13:15.893Z,95286.00
2023-05-09T04:14:15.863Z,95288.00
2023-05-09T04:15:16.142Z,95288.00
2023-05-09T04:16:15.925Z,95286.00
2023-05-09T04:17:15.892Z,95286.00
2023-05-09T04:18:15.913Z,95288.00
2023-05-09T04:19:16.671Z,95284.00
2023-05-09T04:20:15.996Z,95284.00
2023-05-09T04:21:15.955Z,95282.00
2023-05-09T04:22:15.995Z,95286.00
2023-05-09T04:23:16.017Z,95286.00
2023-05-09T04:24:15.984Z,95286.00
2023-05-09T04:25:16.240Z,95288.00
2023-05-09T04:26:16.025Z,95286.00
2023-05-09T04:27:16.042Z,95286.00
2023-05-09T04:28:16.039Z,95286.00
2023-05-09T04:29:16.070Z,95288.00
2023-05-09T04:30:16.097Z,95288.00
2023-05-09T04:31:16.280Z,95290.00
2023-05-09T04:32:16.711Z,95288.00
2023-05-09T04:33:16.121Z,95290.00
2023-05-09T04:34:16.099Z,95293.00
2023-05-09T04:35:18.965Z,95292.00
2023-05-09T04:36:16.140Z,95292.00
2023-05-09T04:37:16.207Z,95292.00
2023-05-09T04:38:16.101Z,95290.00
2023-05-09T04:39:16.113Z,95290.00
2023-05-09T04:40:16.114Z,95290.00
2023-05-09T04:41:16.099Z,95288.00
2023-05-09T04:42:16.238Z,95286.00
2023-05-09T04:43:16.096Z,95284.00
2023-05-09T04:44:16.100Z,95284.00
2023-05-09T04:45:16.254Z,95284.00
2023-05-09T04:46:16.097Z,95282.00
2023-05-09T04:47:16.082Z,95282.00
2023-05-09T04:48:16.064Z,95280.00
2023-05-09T04:49:16.009Z,95280.00
2023-05-09T04:50:16.083Z,95284.00
2023-05-09T04:51:16.133Z,95282.00
2023-05-09T04:52:16.054Z,95286.00
2023-05-09T04:53:16.017Z,95286.00
2023-05-09T04:54:16.040Z,95282.00
2023-05-09T04:55:16.230Z,95284.00
2023-05-09T04:56:16.007Z,95282.00
2023-05-09T04:57:18.344Z,95282.00
2023-05-09T04:58:16.018Z,95280.00
2023-05-09T04:59:15.993Z,95282.00
2023-05-09T05:00:16.001Z,95286.00
2023-05-09T05:01:16.056Z,95282.00
2023-05-09T05:02:15.953Z,95286.00
2023-05-09T05:03:15.942Z,95284.00
2023-05-09T05:04:15.945Z,95282.00
2023-05-09T05:05:15.932Z,95284.00
2023-05-09T05:06:15.898Z,95284.00
2023-05-09T05:07:15.991Z,95282.00
2023-05-09T05:08:15.920Z,95282.00
2023-05-09T05:09:15.918Z,95280.00
2023-05-09T05:10:15.899Z,95280.00
2023-05-09T05:11:15.900Z,95280.00
2023-05-09T05:12:15.916Z,95280.00
2023-05-09T05:13:15.895Z,95278.00
2023-05-09T05:14:15.893Z,95276.00
2023-05-09T05:15:16.152Z,95276.00
2023-05-09T05:16:15.924Z,95276.00
2023-05-09T05:17:15.839Z,95278.00
2023-05-09T05:18:15.867Z,95276.00
2023-05-09T05:19:15.817Z,95276.00
2023-05-09T05:20:15.826Z,95278.00
2023-05-09T05:21:15.838Z,95276.00
2023-05-09T05:22:15.813Z,95278.00
2023-05-09T05:23:15.905Z,95278.00
2023-05-09T05:24:15.813Z,95278.00
2023-05-09T05:25:15.983Z,95278.00
2023-05-09T05:26:15.752Z,95276.00
2023-05-09T05:27:15.825Z,95276.00
2023-05-09T05:28:15.778Z,95276.00
2023-05-09T05:29:15.768Z,95278.00
2023-05-09T05:30:15.952Z,95278.00
2023-05-09T05:31:15.798Z,95278.00
2023-05-09T05:32:15.765Z,95280.00
2023-05-09T05:33:15.755Z,95280.00
2023-05-09T05:34:15.783Z,95280.00
2023-05-09T05:35:15.953Z,95284.00
2023-05-09T05:36:15.737Z,95284.00
2023-05-09T05:37:15.720Z,95284.00
2023-05-09T05:38:15.694Z,95286.00
2023-05-09T05:39:15.752Z,95286.00
2023-05-09T05:40:15.711Z,95286.00
2023-05-09T05:41:15.712Z,95288.00
2023-05-09T05:42:15.720Z,95290.00
2023-05-09T05:43:15.771Z,95292.00
2023-05-09T05:44:15.661Z,95288.00
2023-05-09T05:45:15.964Z,95292.00
2023-05-09T05:46:15.702Z,95292.00
2023-05-09T05:47:15.667Z,95290.00
2023-05-09T05:48:15.668Z,95286.00
2023-05-09T05:49:15.648Z,95288.00
2023-05-09T05:50:15.668Z,95288.00
2023-05-09T05:51:15.608Z,95288.00
2023-05-09T05:52:15.604Z,95288.00
2023-05-09T05:53:15.737Z,95284.00
2023-05-09T05:54:15.599Z,95284.00
2023-05-09T05:55:15.936Z,95284.00
2023-05-09T05:56:15.573Z,95286.00
2023-05-09T05:57:15.559Z,95284.00
2023-05-09T05:58:15.743Z,95286.00
2023-05-09T05:59:15.547Z,95284.00
2023-05-09T06:00:15.519Z,95284.00
2023-05-09T06:01:15.551Z,95284.00
2023-05-09T06:02:15.582Z,95278.00
2023-05-09T06:03:15.790Z,95278.00
2023-05-09T06:04:15.569Z,95278.00
2023-05-09T06:05:15.594Z,95276.00
2023-05-09T06:06:15.481Z,95272.00
2023-05-09T06:07:15.497Z,95272.00
2023-05-09T06:08:15.729Z,95272.00
2023-05-09T06:09:15.437Z,95270.00
2023-05-09T06:10:15.469Z,95268.00
2023-05-09T06:11:15.456Z,95270.00
2023-05-09T06:12:15.444Z,95270.00
2023-05-09T06:13:15.796Z,95268.00
2023-05-09T06:14:15.449Z,95270.00
2023-05-09T06:15:15.720Z,95268.00
2023-05-09T06:16:20.018Z,95268.00
2023-05-09T06:17:16.542Z,95268.00
2023-05-09T06:18:15.464Z,95270.00
2023-05-09T06:19:15.413Z,95270.00
2023-05-09T06:20:15.401Z,95270.00
2023-05-09T06:21:15.398Z,95268.00
2023-05-09T06:22:15.379Z,95268.00
2023-05-09T06:23:15.392Z,95268.00
2023-05-09T06:24:27.431Z,95264.00
2023-05-09T06:25:16.583Z,95266.00
2023-05-09T06:26:15.325Z,95266.00
2023-05-09T06:27:15.429Z,95270.00
2023-05-09T06:28:15.322Z,95270.00
2023-05-09T06:29:15.335Z,95270.00
2023-05-09T06:30:25.835Z,95268.00
2023-05-09T06:31:16.328Z,95264.00
2023-05-09T06:32:15.338Z,95262.00
2023-05-09T06:33:15.311Z,95262.00
2023-05-09T06:34:15.327Z,95258.00
2023-05-09T06:35:15.571Z,95254.00
2023-05-09T06:36:15.273Z,95254.00
2023-05-09T06:37:15.250Z,95254.00
2023-05-09T06:38:15.243Z,95252.00
2023-05-09T06:39:15.311Z,95252.00
2023-05-09T06:40:15.256Z,95254.00
2023-05-09T06:41:15.244Z,95252.00
2023-05-09T06:42:15.256Z,95252.00
2023-05-09T06:43:15.354Z,95250.00
2023-05-09T06:44:15.245Z,95252.00
2023-05-09T06:45:15.492Z,95248.00
2023-05-09T06:46:15.300Z,95252.00
2023-05-09T06:47:15.235Z,95250.00
2023-05-09T06:48:15.267Z,95246.00
2023-05-09T06:49:15.224Z,95246.00
2023-05-09T06:50:15.260Z,95246.00
2023-05-09T06:51:15.341Z,95248.00
2023-05-09T06:52:15.408Z,95241.00
2023-05-09T06:53:15.344Z,95245.00
2023-05-09T06:54:15.390Z,95243.00
2023-05-09T06:55:15.681Z,95246.00
2023-05-09T06:56:15.464Z,95241.00
2023-05-09T06:57:15.517Z,95241.00
2023-05-09T06:58:15.779Z,95245.00
2023-05-09T06:59:15.540Z,95239.00
2023-05-09T07:00:15.579Z,95241.00
2023-05-09T07:01:15.609Z,95241.00
2023-05-09T07:02:15.591Z,95239.00
2023-05-09T07:03:15.594Z,95239.00
2023-05-09T07:04:15.593Z,95239.00
2023-05-09T07:05:15.842Z,95241.00
2023-05-09T07:06:15.618Z,95241.00
2023-05-09T07:07:15.606Z,95239.00
2023-05-09T07:08:15.604Z,95241.00
2023-05-09T07:09:15.606Z,95237.00
2023-05-09T07:10:15.605Z,95235.00
2023-05-09T07:11:15.639Z,95239.00
2023-05-09T07:12:15.699Z,95241.00
2023-05-09T07:13:15.808Z,95243.00
2023-05-09T07:14:15.814Z,95239.00
2023-05-09T07:15:25.667Z,95237.00
2023-05-09T07:16:16.870Z,95235.00
2023-05-09T07:17:23.684Z,95237.00
2023-05-09T07:18:16.857Z,95235.00
2023-05-09T07:19:15.832Z,95233.00
2023-05-09T07:20:15.822Z,95231.00
2023-05-09T07:21:15.812Z,95231.00
2023-05-09T07:22:15.797Z,95227.00
2023-05-09T07:23:15.796Z,95225.00
2023-05-09T07:24:15.771Z,95227.00
2023-05-09T07:25:15.997Z,95229.00
2023-05-09T07:26:15.775Z,95223.00
2023-05-09T07:27:15.781Z,95223.00
2023-05-09T07:28:16.286Z,95227.00
2023-05-09T07:29:15.839Z,95221.00
2023-05-09T07:30:15.992Z,95221.00
2023-05-09T07:31:16.037Z,95221.00
2023-05-09T07:32:15.981Z,95221.00
2023-05-09T07:33:16.298Z,95223.00
2023-05-09T07:34:16.020Z,95221.00
2023-05-09T07:35:16.253Z,95217.00
2023-05-09T07:36:16.054Z,95217.00
2023-05-09T07:37:16.534Z,95217.00
2023-05-09T07:38:16.310Z,95215.00
2023-05-09T07:39:16.166Z,95213.00
2023-05-09T07:40:16.474Z,95215.00
2023-05-09T07:41:16.255Z,95215.00
2023-05-09T07:42:16.249Z,95213.00
2023-05-09T07:43:16.295Z,95209.00
2023-05-09T07:44:16.291Z,95213.00
2023-05-09T07:45:16.659Z,95213.00
2023-05-09T07:46:16.407Z,95213.00
2023-05-09T07:47:16.409Z,95211.00
2023-05-09T07:48:16.768Z,95203.00
2023-05-09T07:49:16.312Z,95205.00
2023-05-09T07:50:16.312Z,95201.00
2023-05-09T07:51:16.343Z,95203.00
2023-05-09T07:52:16.333Z,95199.00
2023-05-09T07:53:16.296Z,95199.00
2023-05-09T07:54:16.818Z,95196.00
2023-05-09T07:55:16.564Z,95196.00
2023-05-09T07:56:16.349Z,95192.00
2023-05-09T07:57:16.397Z,95192.00
2023-05-09T07:58:16.434Z,95190.00
2023-05-09T07:59:16.467Z,95192.00
2023-05-09T08:00:16.505Z,95190.00
2023-05-09T08:01:16.522Z,95192.00
2023-05-09T08:02:16.626Z,95194.00
2023-05-09T08:03:16.854Z,95184.00
2023-05-09T08:04:16.801Z,95182.00
2023-05-09T08:05:17.024Z,95184.00
2023-05-09T08:06:16.696Z,95182.00
2023-05-09T08:07:16.827Z,95178.00
2023-05-09T08:08:16.776Z,95180.00
2023-05-09T08:09:16.844Z,95176.00
2023-05-09T08:10:16.905Z,95176.00
2023-05-09T08:11:16.929Z,95174.00
2023-05-09T08:12:17.033Z,95172.00
2023-05-09T08:13:17.050Z,95176.00
2023-05-09T08:14:17.300Z,95172.00
2023-05-09T08:15:17.422Z,95172.00
2023-05-09T08:16:17.261Z,95168.00
2023-05-09T08:17:17.242Z,95166.00
2023-05-09T08:18:17.304Z,95164.00
2023-05-09T08:19:17.474Z,95162.00
2023-05-09T08:20:17.387Z,95162.00
2023-05-09T08:21:17.824Z,95156.00
2023-05-09T08:22:17.532Z,95156.00
2023-05-09T08:23:17.605Z,95145.00
2023-05-09T08:24:17.677Z,95143.00
2023-05-09T08:25:17.738Z,95143.00
2023-05-09T08:26:17.720Z,95141.00
2023-05-09T08:27:17.792Z,95139.00
2023-05-09T08:28:17.973Z,95139.00
2023-05-09T08:29:17.872Z,95139.00
2023-05-09T08:30:17.892Z,95137.00
2023-05-09T08:31:18.004Z,95137.00
2023-05-09T08:32:17.996Z,95137.00
2023-05-09T08:33:18.121Z,95135.00
2023-05-09T08:34:18.048Z,95131.00
2023-05-09T08:35:18.240Z,95131.00
2023-05-09T08:36:18.105Z,95129.00
2023-05-09T08:37:18.155Z,95123.00
2023-05-09T08:38:18.202Z,95121.00
2023-05-09T08:39:18.297Z,95119.00
2023-05-09T08:40:18.244Z,95117.00
2023-05-09T08:41:18.261Z,95109.00
2023-05-09T08:42:18.317Z,95111.00
2023-05-09T08:43:18.325Z,95107.00
2023-05-09T08:44:18.856Z,95105.00
2023-05-09T08:45:18.382Z,95105.00
2023-05-09T08:46:18.446Z,95103.00
2023-05-09T08:47:18.420Z,95103.00
2023-05-09T08:48:18.420Z,95105.00
2023-05-09T08:49:18.835Z,95101.00
2023-05-09T08:50:18.829Z,95096.00
2023-05-09T08:51:18.570Z,95098.00
2023-05-09T08:52:18.491Z,95096.00
2023-05-09T08:53:18.510Z,95092.00
2023-05-09T08:54:20.075Z,95094.00
2023-05-09T08:55:18.510Z,95098.00
2023-05-09T08:56:18.507Z,95094.00
2023-05-09T08:57:18.523Z,95088.00
2023-05-09T08:58:18.530Z,95090.00
2023-05-09T08:59:18.505Z,95090.00
2023-05-09T09:00:20.467Z,95090.00
2023-05-09T09:01:18.526Z,95086.00
2023-05-09T09:02:18.512Z,95084.00
2023-05-09T09:03:18.533Z,95082.00
2023-05-09T09:04:18.590Z,95080.00
2023-05-09T09:05:39.643Z,95072.00
2023-05-09T09:06:19.612Z,95072.00
2023-05-09T09:07:18.674Z,95070.00
2023-05-09T09:08:18.552Z,95066.00
2023-05-09T09:09:18.812Z,95062.00
2023-05-09T09:10:18.564Z,95062.00
2023-05-09T09:11:18.592Z,95058.00
2023-05-09T09:12:18.578Z,95058.00
2023-05-09T09:13:18.598Z,95056.00
2023-05-09T09:14:18.535Z,95054.00
2023-05-09T09:15:18.556Z,95056.00
2023-05-09T09:16:18.644Z,95052.00
2023-05-09T09:17:18.667Z,95051.00
2023-05-09T09:18:18.724Z,95052.00
2023-05-09T09:19:18.811Z,95047.00
2023-05-09T09:20:18.851Z,95043.00
2023-05-09T09:21:18.909Z,95041.00
2023-05-09T09:22:18.950Z,95039.00
2023-05-09T09:23:19.105Z,95039.00
2023-05-09T09:24:19.064Z,95037.00
2023-05-09T09:25:19.141Z,95039.00
2023-05-09T09:26:19.195Z,95035.00
2023-05-09T09:27:19.327Z,95035.00
2023-05-09T09:28:19.322Z,95035.00
2023-05-09T09:29:19.331Z,95035.00
2023-05-09T09:30:19.450Z,95035.00
2023-05-09T09:31:19.511Z,95029.00
2023-05-09T09:32:19.552Z,95025.00
2023-05-09T09:33:19.568Z,95025.00
2023-05-09T09:34:19.607Z,95023.00
2023-05-09T09:35:19.662Z,95021.00
2023-05-09T09:36:19.734Z,95017.00
2023-05-09T09:37:19.724Z,95017.00
2023-05-09T09:38:19.819Z,95013.00
2023-05-09T09:39:19.898Z,95017.00
2023-05-09T09:40:19.904Z,95015.00
2023-05-09T09:41:19.933Z,95011.00
2023-05-09T09:42:19.964Z,95011.00
2023-05-09T09:43:20.013Z,95011.00
2023-05-09T09:44:20.330Z,95007.00
2023-05-09T09:45:20.236Z,95007.00
2023-05-09T09:46:20.160Z,95002.00
2023-05-09T09:47:20.170Z,94996.00
2023-05-09T09:48:20.222Z,94998.00
2023-05-09T09:49:20.320Z,94992.00
2023-05-09T09:50:20.422Z,94994.00
2023-05-09T09:51:20.386Z,94990.00
2023-05-09T09:52:20.408Z,94988.00
2023-05-09T09:53:20.436Z,94988.00
2023-05-09T09:54:20.876Z,94984.00
2023-05-09T09:55:20.584Z,94980.00
2023-05-09T09:56:20.532Z,94980.00
2023-05-09T09:57:20.525Z,94976.00
2023-05-09T09:58:20.608Z,94974.00
2023-05-09T09:59:20.611Z,94970.00
2023-05-09T10:00:20.643Z,94968.00
2023-05-09T10:01:20.755Z,94966.00
2023-05-09T10:02:20.729Z,94966.00
2023-05-09T10:03:20.844Z,94964.00
2023-05-09T10:04:20.737Z,94962.00
2023-05-09T10:05:20.781Z,94964.00
2023-05-09T10:06:20.798Z,94960.00
2023-05-09T10:07:20.796Z,94958.00
2023-05-09T10:08:20.764Z,94951.00
2023-05-09T10:09:20.882Z,94949.00
2023-05-09T10:10:20.879Z,94951.00
2023-05-09T10:11:20.978Z,94949.00
2023-05-09T10:12:20.861Z,94947.00
2023-05-09T10:13:20.987Z,94947.00
2023-05-09T10:14:20.838Z,94945.00
2023-05-09T10:15:20.926Z,94943.00
2023-05-09T10:16:35.709Z,94939.00
2023-05-09T10:17:22.089Z,94937.00
2023-05-09T10:18:21.044Z,94931.00
2023-05-09T10:19:21.361Z,94933.00
2023-05-09T10:20:20.897Z,94927.00
2023-05-09T10:21:20.893Z,94931.00
2023-05-09T10:22:20.897Z,94923.00
2023-05-09T10:23:20.895Z,94921.00
2023-05-09T10:24:20.886Z,94917.00
2023-05-09T10:25:20.851Z,94919.00
2023-05-09T10:26:20.841Z,94917.00
2023-05-09T10:27:20.824Z,94913.00
2023-05-09T10:28:20.839Z,94909.00
2023-05-09T10:29:20.823Z,94907.00
2023-05-09T10:30:20.809Z,94905.00
2023-05-09T10:31:20.864Z,94905.00
2023-05-09T10:32:20.856Z,94902.00
2023-05-09T10:33:20.795Z,94902.00
2023-05-09T10:34:20.804Z,94902.00
2023-05-09T10:35:20.800Z,94905.00
2023-05-09T10:36:20.812Z,94902.00
2023-05-09T10:37:20.777Z,94900.00
2023-05-09T10:38:20.750Z,94896.00
2023-05-09T10:39:20.753Z,94888.00
2023-05-09T10:40:20.765Z,94888.00
2023-05-09T10:41:20.733Z,94886.00
2023-05-09T10:42:20.732Z,94880.00
2023-05-09T10:43:20.839Z,94880.00
2023-05-09T10:44:20.843Z,94878.00
2023-05-09T10:45:20.728Z,94876.00
2023-05-09T10:46:20.741Z,94868.00
2023-05-09T10:47:20.759Z,94868.00
2023-05-09T10:48:20.685Z,94868.00
2023-05-09T10:49:20.681Z,94866.00
2023-05-09T10:50:20.720Z,94864.00
2023-05-09T10:51:20.687Z,94858.00
2023-05-09T10:52:20.674Z,94858.00
2023-05-09T10:53:20.686Z,94853.00
2023-05-09T10:54:20.854Z,94857.00
2023-05-09T10:55:20.739Z,94855.00
2023-05-09T10:56:20.757Z,94851.00
2023-05-09T10:57:20.751Z,94845.00
2023-05-09T10:58:20.801Z,94845.00
2023-05-09T10:59:20.787Z,94851.00
2023-05-09T11:00:20.801Z,94845.00
2023-05-09T11:01:20.786Z,94837.00
2023-05-09T11:02:20.776Z,94835.00
2023-05-09T11:03:20.817Z,94833.00
2023-05-09T11:04:21.372Z,94829.00
2023-05-09T11:05:20.881Z,94823.00
2023-05-09T11:06:20.869Z,94823.00
2023-05-09T11:07:20.875Z,94821.00
2023-05-09T11:08:20.886Z,94817.00
2023-05-09T11:09:20.928Z,94813.00
2023-05-09T11:10:21.925Z,94813.00
2023-05-09T11:11:20.941Z,94811.00
2023-05-09T11:12:20.912Z,94806.00
2023-05-09T11:13:21.095Z,94804.00
2023-05-09T11:14:21.358Z,94802.00
2023-05-09T11:15:20.996Z,94806.00
2023-05-09T11:16:20.959Z,94798.00
2023-05-09T11:17:20.928Z,94800.00
2023-05-09T11:18:20.899Z,94798.00
2023-05-09T11:19:21.127Z,94802.00
2023-05-09T11:20:21.415Z,94798.00
2023-05-09T11:21:20.981Z,94794.00
2023-05-09T11:22:21.039Z,94792.00
2023-05-09T11:23:21.046Z,94788.00
2023-05-09T11:24:21.877Z,94790.00
2023-05-09T11:25:21.379Z,94784.00
2023-05-09T11:26:21.086Z,94784.00
2023-05-09T11:27:21.107Z,94780.00
2023-05-09T11:28:21.083Z,94778.00
2023-05-09T11:29:21.146Z,94776.00
2023-05-09T11:30:21.139Z,94774.00
2023-05-09T11:31:21.265Z,94770.00
2023-05-09T11:32:21.202Z,94770.00
2023-05-09T11:33:21.201Z,94766.00
2023-05-09T11:34:21.193Z,94768.00
2023-05-09T11:35:21.463Z,94764.00
2023-05-09T11:36:21.342Z,94764.00
2023-05-09T11:37:21.268Z,94761.00
2023-05-09T11:38:21.334Z,94761.00
2023-05-09T11:39:21.347Z,94757.00
2023-05-09T11:40:21.341Z,94757.00
2023-05-09T11:41:21.497Z,94753.00
2023-05-09T11:42:21.351Z,94753.00
2023-05-09T11:43:21.300Z,94747.00
2023-05-09T11:44:21.343Z,94747.00